Time;durP1;ratioP1;P1;durP2;ratioP2;P2;SDS_P1;SDS_P2;PMS_P1;PMS_P2;Temp;Humidity;BMP_temperature;BMP_pressure;BME280_temperature;BME280_humidity;BME280_pressure;Samples;Min_cycle;Max_cycle;Signal;HPM_P1;HPM_P2
2023/03/08 00:00:20;;;;;;;;;;;18.50;37.10;;;;;;3056643;19;4843;-73
2023/03/08 00:01:22;;;;;;;;;;;18.50;37.10;;;;;;3056145;19;4570;-72
2023/03/08 00:02:22;;;;;;;;;;;18.50;37.10;;;;;;3055964;19;6222;-73
2023/03/08 00:03:23;;;;;;;;;;;18.50;37.10;;;;;;3054968;19;5245;-72
2023/03/08 00:04:24;;;;;;;;;;;18.50;37.10;;;;;;3055094;19;4800;-72
2023/03/08 00:05:24;;;;;;;;;;;18.50;37.20;;;;;;3055641;19;4803;-73
2023/03/08 00:06:25;;;;;;;;;;;18.50;37.20;;;;;;3056767;19;4992;-78
2023/03/08 00:07:26;;;;;;;;;;;18.50;37.20;;;;;;3058722;19;6310;-78
2023/03/08 00:08:26;;;;;;;;;;;18.50;37.20;;;;;;3059490;19;4461;-77
2023/03/08 00:09:27;;;;;;;;;;;18.50;37.10;;;;;;3059960;19;5937;-78
2023/03/08 00:10:28;;;;;;;;;;;18.40;37.10;;;;;;3055926;19;4520;-78
2023/03/08 00:11:28;;;;;;;;;;;18.40;37.10;;;;;;3058430;19;5379;-81
2023/03/08 00:12:29;;;;;;;;;;;18.40;37.20;;;;;;3061575;19;5994;-81
2023/03/08 00:13:30;;;;;;;;;;;18.40;37.20;;;;;;3059734;19;4787;-82
2023/03/08 00:14:30;;;;;;;;;;;18.40;37.20;;;;;;3058385;19;5349;-82
2023/03/08 00:15:31;;;;;;;;;;;18.40;37.20;;;;;;3060290;19;4402;-80
2023/03/08 00:16:32;;;;;;;;;;;18.40;37.20;;;;;;3060865;19;4922;-76
2023/03/08 00:17:35;;;;;;;;;;;18.40;37.20;;;;;;3057515;19;4978;-75
2023/03/08 00:18:36;;;;;;;;;;;18.40;37.20;;;;;;3056577;19;5797;-75
2023/03/08 00:19:36;;;;;;;;;;;18.40;37.20;;;;;;3057187;19;5531;-74
2023/03/08 00:20:37;;;;;;;;;;;18.40;37.20;;;;;;3055993;19;4873;-75
2023/03/08 00:21:37;;;;;;;;;;;18.40;37.20;;;;;;3057625;19;4402;-80
2023/03/08 00:22:39;;;;;;;;;;;18.40;37.20;;;;;;3057152;19;4951;-83
2023/03/08 00:23:41;;;;;;;;;;;18.40;37.20;;;;;;3056593;19;4806;-81
2023/03/08 00:24:41;;;;;;;;;;;18.40;37.30;;;;;;3058869;19;4492;-81
2023/03/08 00:25:42;;;;;;;;;;;18.40;37.30;;;;;;3058071;19;4933;-82
2023/03/08 00:26:42;;;;;;;;;;;18.40;37.20;;;;;;3056668;19;5016;-81
2023/03/08 00:27:44;;;;;;;;;;;18.40;37.20;;;;;;3057493;19;5680;-81
2023/03/08 00:28:45;;;;;;;;;;;18.40;37.20;;;;;;3056055;19;5978;-82
2023/03/08 00:29:47;;;;;;;;;;;18.40;37.20;;;;;;3056548;19;5527;-80
2023/03/08 00:30:58;;;;;;;;;;;18.40;37.30;;;;;;3056542;19;4333;-82
2023/03/08 00:31:58;;;;;;;;;;;18.40;37.20;;;;;;3055905;19;4545;-82
2023/03/08 00:32:59;;;;;;;;;;;18.40;37.30;;;;;;3056345;19;4900;-82
2023/03/08 00:34:00;;;;;;;;;;;18.40;37.30;;;;;;3055129;19;4767;-82
2023/03/08 00:35:00;;;;;;;;;;;18.30;37.20;;;;;;3057771;19;4941;-80
2023/03/08 00:36:08;;;;;;;;;;;18.40;37.30;;;;;;3070261;19;6203;-80
2023/03/08 00:37:09;;;;;;;;;;;18.40;37.30;;;;;;3067402;19;4772;-80
2023/03/08 00:38:09;;;;;;;;;;;18.30;37.30;;;;;;3069583;19;5197;-81
2023/03/08 00:39:10;;;;;;;;;;;18.40;37.30;;;;;;3068250;19;5133;-77
2023/03/08 00:40:11;;;;;;;;;;;18.30;37.30;;;;;;3071027;19;812;-81
2023/03/08 00:41:12;;;;;;;;;;;18.30;37.30;;;;;;3068419;19;4756;-80
2023/03/08 00:42:12;;;;;;;;;;;18.30;38.00;;;;;;3068743;19;4668;-80
2023/03/08 00:43:13;;;;;;;;;;;18.30;37.30;;;;;;3068963;19;4662;-80
2023/03/08 00:44:15;;;;;;;;;;;18.30;37.30;;;;;;3068707;19;4924;-81
2023/03/08 00:45:15;;;;;;;;;;;18.30;37.30;;;;;;3068766;19;5269;-81
2023/03/08 00:46:16;;;;;;;;;;;18.30;37.30;;;;;;3069483;19;4711;-75
2023/03/08 00:47:17;;;;;;;;;;;18.30;37.30;;;;;;3067952;19;4521;-75
2023/03/08 00:48:17;;;;;;;;;;;18.30;37.40;;;;;;3067590;19;5099;-74
2023/03/08 00:49:18;;;;;;;;;;;18.30;37.30;;;;;;3068617;19;5031;-75
2023/03/08 00:50:19;;;;;;;;;;;18.30;37.30;;;;;;3046619;19;4957;-74
2023/03/08 00:51:19;;;;;;;;;;;18.30;37.30;;;;;;3068853;19;4457;-73
2023/03/08 00:52:21;;;;;;;;;;;18.30;37.30;;;;;;3068576;19;4973;-72
2023/03/08 00:53:22;;;;;;;;;;;18.30;37.30;;;;;;3068265;19;4807;-70
2023/03/08 00:54:22;;;;;;;;;;;18.30;37.40;;;;;;3061704;19;5012;-73
2023/03/08 00:55:24;;;;;;;;;;;18.30;37.30;;;;;;3060355;19;4969;-72
2023/03/08 00:56:25;;;;;;;;;;;18.30;37.30;;;;;;3060293;19;4967;-74
2023/03/08 00:57:27;;;;;;;;;;;18.30;37.30;;;;;;3059909;19;5381;-74
2023/03/08 00:58:28;;;;;;;;;;;18.30;37.40;;;;;;3059936;19;4803;-74
2023/03/08 00:59:29;;;;;;;;;;;18.30;37.30;;;;;;3059444;19;5119;-75
2023/03/08 01:00:30;;;;;;;;;;;18.30;37.40;;;;;;3060576;19;5778;-76
2023/03/08 01:01:31;;;;;;;;;;;18.30;37.30;;;;;;3058648;19;4847;-73
2023/03/08 01:02:31;;;;;;;;;;;18.30;37.30;;;;;;3058385;19;4951;-73
2023/03/08 01:03:32;;;;;;;;;;;18.30;37.30;;;;;;3056655;19;4951;-74
2023/03/08 01:04:33;;;;;;;;;;;18.30;37.30;;;;;;3056996;19;5897;-74
2023/03/08 01:05:38;;;;;;;;;;;18.30;37.40;;;;;;3057965;19;5037;-74
2023/03/08 01:06:39;;;;;;;;;;;18.30;37.40;;;;;;3056974;19;4853;-75
2023/03/08 01:07:40;;;;;;;;;;;18.20;37.30;;;;;;3057023;19;5214;-76
2023/03/08 01:08:41;;;;;;;;;;;18.30;37.40;;;;;;3056972;19;5025;-76
2023/03/08 01:09:41;;;;;;;;;;;18.30;37.50;;;;;;3056785;19;5026;-76
2023/03/08 01:11:12;;;;;;;;;;;18.30;37.40;;;;;;3057015;19;4977;-76
2023/03/08 01:12:12;;;;;;;;;;;18.30;37.50;;;;;;3056004;19;5217;-74
2023/03/08 01:13:13;;;;;;;;;;;18.20;37.40;;;;;;3056605;19;4442;-74
2023/03/08 01:14:13;;;;;;;;;;;18.20;37.40;;;;;;3056550;19;5234;-78
2023/03/08 01:15:14;;;;;;;;;;;18.20;37.40;;;;;;3058389;19;1030;-75
2023/03/08 01:16:22;;;;;;;;;;;18.20;37.40;;;;;;3056868;19;4823;-72
2023/03/08 01:17:23;;;;;;;;;;;18.20;37.40;;;;;;3056082;19;4784;-71
2023/03/08 01:18:24;;;;;;;;;;;18.20;37.50;;;;;;3056611;19;5122;-72
2023/03/08 01:19:25;;;;;;;;;;;18.20;37.40;;;;;;3056381;19;5012;-71
2023/03/08 01:20:25;;;;;;;;;;;18.20;37.50;;;;;;3057054;19;4942;-72
2023/03/08 01:21:27;;;;;;;;;;;18.20;37.50;;;;;;3057239;19;6223;-76
2023/03/08 01:22:27;;;;;;;;;;;18.20;37.50;;;;;;3055449;19;4935;-76
2023/03/08 01:23:28;;;;;;;;;;;18.20;37.50;;;;;;3055649;19;4510;-76
2023/03/08 01:24:29;;;;;;;;;;;18.20;37.50;;;;;;3057306;19;5389;-76
2023/03/08 01:25:29;;;;;;;;;;;18.20;37.50;;;;;;3056146;19;5026;-76
2023/03/08 01:26:30;;;;;;;;;;;18.20;37.50;;;;;;3055322;19;5036;-74
2023/03/08 01:27:31;;;;;;;;;;;18.20;37.50;;;;;;3054355;19;6050;-76
2023/03/08 01:28:32;;;;;;;;;;;18.20;37.50;;;;;;3054690;19;5037;-76
2023/03/08 01:29:32;;;;;;;;;;;18.20;37.50;;;;;;3055401;19;6192;-75
2023/03/08 01:30:34;;;;;;;;;;;18.20;37.50;;;;;;3054391;19;4843;-76
2023/03/08 01:31:34;;;;;;;;;;;18.20;37.50;;;;;;3056554;19;4950;-83
2023/03/08 01:32:35;;;;;;;;;;;18.10;37.50;;;;;;3055431;19;4773;-81
2023/03/08 01:33:36;;;;;;;;;;;18.10;37.50;;;;;;3056345;19;4908;-82
2023/03/08 01:34:37;;;;;;;;;;;18.10;37.50;;;;;;3056035;19;4881;-81
2023/03/08 01:35:37;;;;;;;;;;;18.10;37.60;;;;;;3050655;19;4761;-81
2023/03/08 01:36:38;;;;;;;;;;;18.10;37.50;;;;;;3054958;19;4768;-74
2023/03/08 01:37:38;;;;;;;;;;;18.10;37.60;;;;;;3056154;19;4849;-74
2023/03/08 01:38:39;;;;;;;;;;;18.10;37.60;;;;;;3054218;19;4916;-74
2023/03/08 01:39:41;;;;;;;;;;;18.10;37.50;;;;;;3055511;19;4954;-75
2023/03/08 01:40:42;;;;;;;;;;;18.10;37.60;;;;;;3053958;19;5212;-74
2023/03/08 01:41:42;;;;;;;;;;;18.10;37.50;;;;;;3054566;19;4886;-71
2023/03/08 01:42:43;;;;;;;;;;;18.10;37.50;;;;;;3056151;19;4989;-72
2023/03/08 01:43:44;;;;;;;;;;;18.10;37.50;;;;;;3054053;19;4952;-71
2023/03/08 01:44:52;;;;;;;;;;;18.10;37.50;;;;;;3055606;19;5545;-71
2023/03/08 01:46:16;;;;;;;;;;;18.10;37.60;;;;;;3054265;19;4838;-73
2023/03/08 01:47:24;;;;;;;;;;;18.10;37.50;;;;;;2849100;19;2004279;-72
2023/03/08 01:48:37;;;;;;;;;;;18.10;37.60;;;;;;3053722;19;7123;-72
2023/03/08 01:49:38;;;;;;;;;;;18.10;37.60;;;;;;3054275;19;5056;-72
2023/03/08 01:50:38;;;;;;;;;;;18.10;37.60;;;;;;3054260;19;5010;-72
2023/03/08 01:51:53;;;;;;;;;;;18.10;37.60;;;;;;3053217;19;4961;-78
2023/03/08 01:52:53;;;;;;;;;;;18.10;37.60;;;;;;3052982;19;4387;-79
2023/03/08 01:53:54;;;;;;;;;;;18.10;37.60;;;;;;3051481;19;4440;-77
2023/03/08 01:54:57;;;;;;;;;;;18.10;37.70;;;;;;3054802;19;5819;-76
2023/03/08 01:55:57;;;;;;;;;;;18.10;37.70;;;;;;3053950;19;4890;-79
2023/03/08 01:57:20;;;;;;;;;;;18.10;37.60;;;;;;3053016;19;4922;-71
2023/03/08 01:58:20;;;;;;;;;;;18.10;37.60;;;;;;2850740;19;2005441;-72
2023/03/08 01:59:21;;;;;;;;;;;18.10;37.60;;;;;;3053132;19;6211;-73
2023/03/08 02:00:23;;;;;;;;;;;18.10;37.60;;;;;;3053078;19;4975;-73
2023/03/08 02:01:23;;;;;;;;;;;18.10;37.60;;;;;;3052115;19;4953;-73
2023/03/08 02:02:27;;;;;;;;;;;18.10;37.60;;;;;;3051513;19;4564;-70
2023/03/08 02:03:28;;;;;;;;;;;18.10;37.60;;;;;;3052942;19;5398;-73
2023/03/08 02:04:29;;;;;;;;;;;18.10;37.60;;;;;;3052696;19;4584;-72
2023/03/08 02:05:30;;;;;;;;;;;18.10;37.70;;;;;;3053665;19;5268;-72
2023/03/08 02:06:30;;;;;;;;;;;18.00;37.60;;;;;;3053666;19;6219;-71
2023/03/08 02:07:31;;;;;;;;;;;18.00;37.60;;;;;;3048421;19;4779;-72
2023/03/08 02:08:32;;;;;;;;;;;18.00;37.60;;;;;;3054844;19;4590;-72
2023/03/08 02:09:33;;;;;;;;;;;18.00;37.60;;;;;;3054946;19;4956;-72
2023/03/08 02:10:33;;;;;;;;;;;18.00;37.60;;;;;;3052637;19;5664;-72
2023/03/08 02:11:35;;;;;;;;;;;18.00;37.60;;;;;;3054170;19;5324;-74
2023/03/08 02:12:36;;;;;;;;;;;18.00;37.60;;;;;;3043448;19;5651;-75
2023/03/08 02:13:37;;;;;;;;;;;18.00;37.70;;;;;;3054266;19;4458;-74
2023/03/08 02:14:42;;;;;;;;;;;18.00;37.70;;;;;;3053440;19;5182;-74
2023/03/08 02:15:43;;;;;;;;;;;18.00;37.60;;;;;;3053403;19;5386;-73
2023/03/08 02:16:43;;;;;;;;;;;18.00;37.60;;;;;;3054105;19;4942;-73
2023/03/08 02:17:44;;;;;;;;;;;18.00;37.60;;;;;;3053091;19;5363;-74
2023/03/08 02:18:52;;;;;;;;;;;18.00;37.60;;;;;;3031926;19;4804;-74
2023/03/08 02:20:12;;;;;;;;;;;18.00;37.80;;;;;;3054373;19;4953;-73
2023/03/08 02:21:13;;;;;;;;;;;18.00;37.70;;;;;;3053230;19;4941;-71
2023/03/08 02:22:17;;;;;;;;;;;18.00;37.70;;;;;;3052606;19;4412;-72
2023/03/08 02:23:22;;;;;;;;;;;18.00;37.70;;;;;;3051620;19;5198;-72
2023/03/08 02:24:23;;;;;;;;;;;18.00;37.70;;;;;;3053818;19;4844;-73
2023/03/08 02:25:25;;;;;;;;;;;17.90;37.60;;;;;;3054592;19;6541;-73
2023/03/08 02:26:25;;;;;;;;;;;18.00;37.80;;;;;;3053524;19;4457;-75
2023/03/08 02:27:27;;;;;;;;;;;18.00;37.80;;;;;;3053647;19;4731;-75
2023/03/08 02:28:28;;;;;;;;;;;17.90;37.70;;;;;;3053635;19;5614;-75
2023/03/08 02:29:29;;;;;;;;;;;17.90;37.70;;;;;;3051899;19;4912;-75
2023/03/08 02:30:34;;;;;;;;;;;17.90;37.70;;;;;;3053662;19;4830;-75
2023/03/08 02:31:35;;;;;;;;;;;17.90;37.60;;;;;;3053201;19;5380;-72
2023/03/08 02:32:35;;;;;;;;;;;17.90;37.70;;;;;;3051506;19;4416;-73
